Time;durP1;ratioP1;P1;durP2;ratioP2;P2;SDS_P1;SDS_P2;PMS_P1;PMS_P2;Temp;Humidity;BMP_temperature;BMP_pressure;BME280_temperature;BME280_humidity;BME280_pressure;Samples;Min_cycle;Max_cycle;Signal;HPM_P1;HPM_P2
2023/03/01 00:01:28;;;;;;;49.97;26.55;;;;;;;4.58;100.00;100922.38;4980837;28;20112;-89
2023/03/01 00:03:54;;;;;;;47.17;26.92;;;;;;;4.41;100.00;100924.59;4981878;28;20093;-93
2023/03/01 00:06:20;;;;;;;45.67;26.92;;;;;;;4.29;100.00;100926.31;4998236;28;20038;-90
2023/03/01 00:08:46;;;;;;;46.00;26.55;;;;;;;4.57;100.00;100925.13;4963845;28;20454;-90
2023/03/01 00:11:24;;;;;;;44.55;26.30;;;;;;;4.45;100.00;100933.88;4997540;28;20065;-90
2023/03/01 00:14:01;;;;;;;47.42;26.45;;;;;;;4.41;100.00;100920.16;4980514;28;20030;-89
2023/03/01 00:16:35;;;;;;;49.33;26.52;;;;;;;4.51;100.00;100923.78;4998005;28;20470;-90
2023/03/01 00:19:02;;;;;;;46.03;25.23;;;;;;;4.78;100.00;100917.41;4997450;28;20045;-91
2023/03/01 00:21:27;;;;;;;43.83;24.45;;;;;;;4.76;100.00;100914.91;4997036;28;20066;-91
2023/03/01 00:23:54;;;;;;;44.33;25.42;;;;;;;4.55;100.00;100917.34;4997626;28;20038;-91
2023/03/01 00:26:24;;;;;;;39.83;22.73;;;;;;;4.79;100.00;100925.19;4996816;28;20109;-90
2023/03/01 00:28:50;;;;;;;44.13;23.92;;;;;;;4.55;100.00;100927.84;4964079;28;20073;-90
2023/03/01 00:31:21;;;;;;;46.20;25.25;;;;;;;4.44;100.00;100916.50;4997802;28;20125;-92
2023/03/01 00:33:50;;;;;;;47.65;27.15;;;;;;;4.55;100.00;100914.72;4998759;28;20114;-91
2023/03/01 00:36:15;;;;;;;46.53;24.33;;;;;;;4.49;100.00;100928.31;4997427;28;20026;-92
2023/03/01 00:38:43;;;;;;;49.05;25.17;;;;;;;4.81;100.00;100917.19;4979505;28;20117;-93
2023/03/01 00:41:11;;;;;;;44.72;24.75;;;;;;;4.78;100.00;100912.16;4999230;28;20034;-87
2023/03/01 00:43:37;;;;;;;40.60;23.48;;;;;;;4.93;100.00;100903.97;4997768;28;20046;-92
2023/03/01 00:46:05;;;;;;;42.28;24.33;;;;;;;4.83;100.00;100903.00;4962989;28;20034;-89
2023/03/01 00:48:32;;;;;;;44.45;23.50;;;;;;;4.74;100.00;100900.25;4996594;28;20464;-88
2023/03/01 00:51:03;;;;;;;44.10;24.38;;;;;;;4.50;100.00;100893.25;4997769;28;20090;-91
2023/03/01 00:53:29;;;;;;;45.83;24.63;;;;;;;4.46;100.00;100902.28;4980945;28;20038;-90
2023/03/01 00:55:57;;;;;;;41.17;22.80;;;;;;;4.22;100.00;100900.63;4996612;28;20041;-89
2023/03/01 00:58:23;;;;;;;41.92;24.50;;;;;;;4.65;100.00;100899.97;4997100;28;20035;-88
2023/03/01 01:00:48;;;;;;;43.15;24.05;;;;;;;4.41;100.00;100891.28;4996617;28;20042;-89
2023/03/01 01:03:14;;;;;;;43.22;23.73;;;;;;;4.01;100.00;100890.75;4979637;28;20041;-90
2023/03/01 01:05:40;;;;;;;46.92;25.30;;;;;;;3.77;100.00;100881.22;4995769;28;20122;-90
2023/03/01 01:08:06;;;;;;;44.78;24.80;;;;;;;3.88;100.00;100879.47;4978066;28;20037;-86
2023/03/01 01:10:34;;;;;;;46.75;23.90;;;;;;;4.03;100.00;100877.53;4975660;28;20109;-87
2023/03/01 01:13:00;;;;;;;44.72;24.65;;;;;;;4.04;100.00;100868.72;4976169;28;20035;-87
2023/03/01 01:15:26;;;;;;;44.25;24.08;;;;;;;4.25;100.00;100866.28;4975569;28;20097;-87
2023/03/01 01:17:52;;;;;;;43.75;24.05;;;;;;;4.00;100.00;100856.78;4979630;28;20402;-86
2023/03/01 01:20:18;;;;;;;42.67;24.25;;;;;;;4.18;100.00;100847.56;4985031;28;20061;-87
2023/03/01 01:22:43;;;;;;;47.58;24.15;;;;;;;4.24;100.00;100844.50;4984823;28;20031;-91
2023/03/01 01:25:13;;;;;;;46.25;24.20;;;;;;;4.39;100.00;100848.59;4986938;28;20023;-88
2023/03/01 01:27:38;;;;;;;48.55;24.25;;;;;;;4.29;100.00;100842.34;5004061;28;20031;-89
2023/03/01 01:30:04;;;;;;;43.33;23.25;;;;;;;4.28;100.00;100839.84;4970550;28;20052;-90
2023/03/01 01:32:30;;;;;;;44.72;22.85;;;;;;;4.18;100.00;100834.44;4966524;28;20068;-88
2023/03/01 01:34:55;;;;;;;43.92;23.60;;;;;;;4.38;100.00;100841.66;4986333;28;20054;-89
2023/03/01 01:37:21;;;;;;;42.13;23.45;;;;;;;4.36;100.00;100832.25;4985432;28;20031;-88
2023/03/01 01:39:47;;;;;;;41.15;22.25;;;;;;;4.43;100.00;100833.47;4988654;28;20037;-86
2023/03/01 01:42:17;;;;;;;45.13;23.67;;;;;;;4.55;100.00;100836.00;4960623;28;20034;-89
2023/03/01 01:44:46;;;;;;;45.63;23.70;;;;;;;4.34;100.00;100829.72;4984265;28;20390;-88
2023/03/01 01:47:21;;;;;;;45.33;23.83;;;;;;;4.38;100.00;100831.16;4981499;28;20038;-87
2023/03/01 01:49:50;;;;;;;49.10;24.08;;;;;;;4.33;100.00;100822.81;4963283;28;20049;-91
2023/03/01 01:52:24;;;;;;;43.58;24.52;;;;;;;4.31;100.00;100824.69;4996783;28;20041;-88
2023/03/01 01:54:54;;;;;;;44.17;23.30;;;;;;;4.29;100.00;100817.91;4995923;28;20107;-89
2023/03/01 01:57:25;;;;;;;45.05;23.85;;;;;;;4.11;100.00;100817.47;4977985;28;20548;-87
2023/03/01 01:59:54;;;;;;;41.60;24.08;;;;;;;4.09;100.00;100814.16;4972560;28;20113;-87
2023/03/01 02:02:22;;;;;;;40.55;22.65;;;;;;;4.20;100.00;100814.19;4966029;28;20149;-87
2023/03/01 02:04:49;;;;;;;47.25;23.38;;;;;;;3.89;100.00;100807.75;4981799;28;20216;-85
2023/03/01 02:07:22;;;;;;;39.45;23.75;;;;;;;3.89;100.00;100804.28;4983368;28;20035;-86
2023/03/01 02:09:52;;;;;;;46.67;23.85;;;;;;;3.65;100.00;100805.13;4981337;28;20038;-87
2023/03/01 02:12:21;;;;;;;43.53;23.60;;;;;;;3.84;100.00;100802.03;4976384;28;20507;-85
2023/03/01 02:14:46;;;;;;;44.83;23.65;;;;;;;3.71;100.00;100801.25;4994189;28;20167;-87
2023/03/01 02:17:15;;;;;;;41.65;21.85;;;;;;;3.61;100.00;100801.03;4997285;28;20117;-84
2023/03/01 02:19:52;;;;;;;42.85;22.98;;;;;;;3.70;100.00;100796.09;4983198;28;20043;-87
2023/03/01 02:22:30;;;;;;;45.90;22.88;;;;;;;3.84;100.00;100790.69;4999453;28;20034;-86
2023/03/01 02:25:12;;;;;;;39.75;21.88;;;;;;;3.77;100.00;100782.44;4998121;28;20489;-87
2023/03/01 02:27:56;;;;;;;41.03;21.80;;;;;;;3.65;100.00;100793.81;4979747;28;20030;-84
2023/03/01 02:30:24;;;;;;;38.97;21.50;;;;;;;3.65;100.00;100784.16;4996808;28;20039;-87
2023/03/01 02:32:52;;;;;;;44.78;20.80;;;;;;;3.66;100.00;100782.38;4996174;28;20045;-84
2023/03/01 02:35:19;;;;;;;38.63;21.42;;;;;;;3.68;100.00;100782.28;4993878;28;20496;-85
2023/03/01 02:37:45;;;;;;;38.53;20.95;;;;;;;3.72;100.00;100778.47;4993805;28;20113;-87
2023/03/01 02:40:17;;;;;;;41.67;21.25;;;;;;;3.52;100.00;100762.41;4993660;28;20031;-87
2023/03/01 02:42:50;;;;;;;32.53;16.67;;;;;;;3.86;100.00;100766.03;4976272;28;20034;-88
2023/03/01 02:45:16;;;;;;;35.45;19.10;;;;;;;3.98;100.00;100761.66;4975919;28;20042;-86
2023/03/01 02:47:42;;;;;;;41.13;19.73;;;;;;;3.95;100.00;100761.88;4975643;28;20125;-83
2023/03/01 02:50:39;;;;;;;35.33;20.10;;;;;;;3.99;100.00;100755.47;4993806;28;20035;-84
2023/03/01 02:53:14;;;;;;;39.65;20.88;;;;;;;4.00;100.00;100751.91;4976393;28;20120;-86
2023/03/01 02:55:40;;;;;;;38.20;21.50;;;;;;;3.94;100.00;100752.38;5001555;28;20026;-86
2023/03/01 02:58:06;;;;;;;38.28;20.17;;;;;;;4.08;100.00;100750.38;5001295;28;20026;-87
2023/03/01 03:00:39;;;;;;;43.55;21.08;;;;;;;4.06;100.00;100741.78;4981307;28;20025;-85
2023/03/01 03:03:06;;;;;;;45.70;20.60;;;;;;;4.10;100.00;100737.16;4997680;28;20110;-85
2023/03/01 03:05:33;;;;;;;40.83;21.15;;;;;;;4.29;100.00;100745.28;4990533;28;20066;-86
2023/03/01 03:08:00;;;;;;;37.22;21.55;;;;;;;4.36;100.00;100743.88;4997408;28;20081;-86
2023/03/01 03:10:29;;;;;;;38.65;21.20;;;;;;;4.29;100.00;100729.53;4975752;28;20057;-85
2023/03/01 03:13:01;;;;;;;38.67;21.45;;;;;;;4.24;100.00;100734.31;4993167;28;20031;-87
2023/03/01 03:15:27;;;;;;;37.00;20.50;;;;;;;4.35;100.00;100736.94;4993201;28;20138;-87
2023/03/01 03:17:55;;;;;;;37.35;20.63;;;;;;;4.13;100.00;100724.63;4975533;28;20100;-85
2023/03/01 03:20:24;;;;;;;41.80;21.15;;;;;;;4.08;100.00;100733.78;4992970;28;20039;-86
2023/03/01 03:22:53;;;;;;;41.10;20.95;;;;;;;3.89;100.00;100725.63;4992809;28;20402;-86
2023/03/01 03:25:19;;;;;;;36.95;20.17;;;;;;;3.82;100.00;100729.66;4992989;28;20038;-85
2023/03/01 03:27:47;;;;;;;39.05;21.15;;;;;;;3.87;100.00;100724.91;4975597;28;20037;-86
2023/03/01 03:30:16;;;;;;;38.60;20.88;;;;;;;4.08;100.00;100733.78;4993015;28;20062;-85
2023/03/01 03:32:52;;;;;;;38.28;20.90;;;;;;;3.92;100.00;100733.28;4996862;28;20039;-86
2023/03/01 03:35:32;;;;;;;36.47;20.15;;;;;;;4.01;100.00;100722.13;4996600;28;20031;-85
2023/03/01 03:38:03;;;;;;;35.97;21.20;;;;;;;4.09;100.00;100722.34;4996479;28;20062;-85
2023/03/01 03:40:35;;;;;;;37.25;20.42;;;;;;;4.00;100.00;100725.69;4996531;28;20085;-87
2023/03/01 03:43:02;;;;;;;25.60;14.98;;;;;;;4.02;100.00;100723.75;4996628;28;20556;-84
2023/03/01 03:45:29;;;;;;;45.20;21.00;;;;;;;3.85;100.00;100725.03;4996277;28;20109;-84
2023/03/01 03:47:54;;;;;;;38.35;20.42;;;;;;;3.98;100.00;100728.41;4996323;28;20105;-87
2023/03/01 03:50:20;;;;;;;39.35;19.88;;;;;;;3.72;100.00;100726.03;4979001;28;20042;-87
2023/03/01 03:52:48;;;;;;;40.97;19.75;;;;;;;3.73;100.00;100727.72;4996511;28;20470;-85
2023/03/01 03:55:13;;;;;;;37.38;20.15;;;;;;;3.50;100.00;100717.16;4996228;28;20030;-86
2023/03/01 03:57:40;;;;;;;36.35;20.23;;;;;;;3.41;100.00;100723.09;4996433;28;20092;-87
2023/03/01 04:00:15;;;;;;;36.60;19.20;;;;;;;3.66;100.00;100719.47;4996193;28;20061;-85
2023/03/01 04:02:43;;;;;;;36.92;19.33;;;;;;;3.72;100.00;100726.03;4979079;28;20042;-86
2023/03/01 04:05:11;;;;;;;40.47;20.70;;;;;;;3.62;100.00;100720.66;4997849;28;20043;-86
2023/03/01 04:07:38;;;;;;;37.10;20.15;;;;;;;3.51;100.00;100713.56;4997005;28;20048;-86
2023/03/01 04:10:06;;;;;;;37.58;19.73;;;;;;;3.42;100.00;100716.03;4979320;28;20049;-86
2023/03/01 04:12:33;;;;;;;39.42;19.60;;;;;;;3.57;100.00;100715.75;4996590;28;20046;-85
2023/03/01 04:15:00;;;;;;;34.92;18.67;;;;;;;3.78;100.00;100720.38;4996045;28;20146;-86
2023/03/01 04:17:25;;;;;;;41.10;19.25;;;;;;;3.91;100.00;100710.66;4995872;28;20038;-87
2023/03/01 04:19:51;;;;;;;33.13;18.35;;;;;;;3.94;100.00;100721.75;4996100;28;20034;-86
2023/03/01 04:22:18;;;;;;;36.17;20.02;;;;;;;3.80;100.00;100715.84;4996023;28;20478;-86
2023/03/01 04:24:44;;;;;;;33.70;18.58;;;;;;;3.57;100.00;100713.16;4995806;28;20469;-85
2023/03/01 04:27:11;;;;;;;37.40;19.10;;;;;;;3.54;100.00;100713.38;4995673;28;20053;-85
2023/03/01 04:29:36;;;;;;;34.90;18.98;;;;;;;3.46;100.00;100707.84;4978482;28;20125;-86
2023/03/01 04:32:02;;;;;;;37.20;19.20;;;;;;;3.39;100.00;100714.47;4996746;28;20246;-84
2023/03/01 04:34:29;;;;;;;38.50;18.95;;;;;;;3.32;100.00;100701.94;4996402;28;20057;-85
2023/03/01 04:36:55;;;;;;;31.40;19.02;;;;;;;3.43;100.00;100708.06;4979511;28;20097;-86
2023/03/01 04:39:21;;;;;;;39.15;19.27;;;;;;;3.44;100.00;100707.13;4978675;28;20034;-86
2023/03/01 04:41:47;;;;;;;35.47;19.25;;;;;;;3.37;100.00;100711.16;5010387;28;20062;-85
2023/03/01 04:44:12;;;;;;;35.83;19.25;;;;;;;3.49;100.00;100710.25;4984903;28;20099;-85
2023/03/01 04:46:38;;;;;;;37.72;18.50;;;;;;;3.84;100.00;100709.44;4979262;28;20041;-87
2023/03/01 04:49:04;;;;;;;37.90;19.17;;;;;;;3.86;100.00;100713.59;4992668;28;20041;-86
2023/03/01 04:51:32;;;;;;;40.10;19.88;;;;;;;3.84;100.00;100709.44;4977063;28;20580;-87
2023/03/01 04:53:58;;;;;;;34.97;19.42;;;;;;;3.96;100.00;100713.75;4959144;28;20043;-85
2023/03/01 04:56:23;;;;;;;37.92;19.27;;;;;;;4.05;100.00;100710.41;4963706;28;20066;-86
2023/03/01 04:58:49;;;;;;;40.13;19.88;;;;;;;3.72;100.00;100702.47;4963707;28;20023;-88
2023/03/01 05:01:19;;;;;;;36.45;19.38;;;;;;;3.69;100.00;100705.31;4981171;28;20035;-85
2023/03/01 05:03:49;;;;;;;36.97;19.52;;;;;;;3.55;100.00;100709.78;4964301;28;20042;-86
2023/03/01 05:06:15;;;;;;;40.92;20.48;;;;;;;3.50;100.00;100709.31;4978975;28;20030;-86
2023/03/01 05:08:42;;;;;;;42.00;19.40;;;;;;;3.38;100.00;100707.56;4982303;28;20121;-87
2023/03/01 05:11:08;;;;;;;35.38;20.05;;;;;;;3.44;100.00;100704.50;4976223;28;20031;-88
2023/03/01 05:13:35;;;;;;;40.65;20.08;;;;;;;3.49;100.00;100702.38;4976170;28;20043;-91
2023/03/01 05:16:02;;;;;;;37.15;19.88;;;;;;;3.55;100.00;100699.31;4975909;28;20078;-89
2023/03/01 05:18:30;;;;;;;38.65;19.48;;;;;;;3.65;100.00;100705.53;4958946;28;20027;-89
2023/03/01 05:21:11;;;;;;;36.50;19.63;;;;;;;3.78;100.00;100704.66;4975522;28;20073;-86
2023/03/01 05:23:37;;;;;;;34.42;18.65;;;;;;;3.75;100.00;100704.84;4976364;28;20081;-87
2023/03/01 05:26:05;;;;;;;36.05;19.52;;;;;;;3.97;100.00;100707.56;4975929;28;20089;-86
2023/03/01 05:28:31;;;;;;;35.50;18.85;;;;;;;4.00;100.00;100702.06;4976156;28;20047;-87
2023/03/01 05:30:58;;;;;;;35.67;18.65;;;;;;;3.80;100.00;100698.34;4977410;28;20081;-89
2023/03/01 05:33:24;;;;;;;34.38;19.98;;;;;;;3.89;100.00;100702.03;4979847;28;20027;-88
2023/03/01 05:35:51;;;;;;;34.13;18.20;;;;;;;3.87;100.00;100709.19;4976209;28;20027;-86
2023/03/01 05:38:17;;;;;;;38.58;18.77;;;;;;;3.93;100.00;100703.47;4975028;28;20034;-88
2023/03/01 05:40:45;;;;;;;35.25;19.20;;;;;;;3.84;100.00;100699.78;4976248;28;20043;-86
2023/03/01 05:43:13;;;;;;;33.90;18.48;;;;;;;3.78;100.00;100700.22;4975255;28;20031;-88
2023/03/01 05:45:40;;;;;;;36.75;19.15;;;;;;;3.75;100.00;100689.97;4976217;28;20043;-88
2023/03/01 05:48:07;;;;;;;37.55;19.58;;;;;;;3.61;100.00;100698.84;4975433;28;20486;-87
2023/03/01 05:50:35;;;;;;;45.30;19.55;;;;;;;3.79;100.00;100695.81;4976006;28;20035;-89
2023/03/01 05:53:07;;;;;;;33.05;18.55;;;;;;;3.95;100.00;100699.78;4976123;28;20039;-85
2023/03/01 05:55:34;;;;;;;27.08;13.23;;;;;;;4.18;100.00;100702.47;4989961;28;20014;-89
2023/03/01 05:58:01;;;;;;;35.55;18.30;;;;;;;3.91;100.00;100702.78;4977526;28;20046;-89
2023/03/01 06:00:29;;;;;;;35.63;18.15;;;;;;;3.92;100.00;100707.03;4998534;28;20083;-88
2023/03/01 06:02:56;;;;;;;35.05;18.55;;;;;;;4.00;100.00;100707.31;4994024;28;20062;-87
2023/03/01 06:05:22;;;;;;;37.58;19.05;;;;;;;3.97;100.00;100707.56;4976822;28;20030;-89
2023/03/01 06:07:48;;;;;;;38.13;18.92;;;;;;;4.00;100.00;100704.69;4960965;28;20426;-85
2023/03/01 06:10:14;;;;;;;41.05;19.88;;;;;;;4.11;100.00;100702.09;4976156;28;20054;-87
2023/03/01 06:12:41;;;;;;;35.15;18.08;;;;;;;3.95;100.00;100704.19;4977835;28;20034;-90
2023/03/01 06:15:09;;;;;;;35.85;18.73;;;;;;;3.94;100.00;100700.75;4961011;28;20038;-92
2023/03/01 06:17:38;;;;;;;43.28;19.40;;;;;;;3.93;100.00;100706.09;4979599;28;20109;-89
2023/03/01 06:20:06;;;;;;;45.00;20.90;;;;;;;3.91;100.00;100705.41;4993963;28;20077;-89
2023/03/01 06:22:31;;;;;;;44.95;20.80;;;;;;;4.04;100.00;100706.94;4985665;28;20101;-86
2023/03/01 06:24:57;;;;;;;38.45;21.02;;;;;;;4.13;100.00;100706.28;4957935;28;20430;-87
2023/03/01 06:27:22;;;;;;;44.33;20.33;;;;;;;4.37;100.00;100703.56;4975261;28;20031;-90
2023/03/01 06:29:48;;;;;;;40.10;20.08;;;;;;;4.39;100.00;100701.66;4975426;28;20035;-87
2023/03/01 06:32:14;;;;;;;44.08;19.42;;;;;;;4.29;100.00;100705.09;4974434;28;20042;-86
2023/03/01 06:34:40;;;;;;;41.65;20.45;;;;;;;4.24;100.00;100702.84;4974654;28;20081;-86
2023/03/01 06:37:07;;;;;;;41.25;18.67;;;;;;;4.40;100.00;100708.59;4975299;28;20023;-85
2023/03/01 06:39:33;;;;;;;39.03;18.80;;;;;;;4.14;100.00;100707.13;4977151;28;20034;-86
2023/03/01 06:41:59;;;;;;;45.25;21.50;;;;;;;3.96;100.00;100708.50;4976169;28;20085;-87
2023/03/01 06:44:25;;;;;;;47.50;22.42;;;;;;;3.91;100.00;100703.59;4977419;28;20364;-88
2023/03/01 06:46:50;;;;;;;40.45;20.25;;;;;;;4.08;100.00;100704.94;4942514;28;20146;-88
2023/03/01 06:49:17;;;;;;;45.95;21.50;;;;;;;4.13;100.00;100711.53;4976236;28;20033;-88
2023/03/01 06:51:44;;;;;;;45.47;19.90;;;;;;;4.24;100.00;100708.09;4957658;28;20063;-88
2023/03/01 06:54:10;;;;;;;42.63;20.50;;;;;;;4.17;100.00;100704.25;4976926;28;20449;-86
2023/03/01 06:56:35;;;;;;;49.67;19.75;;;;;;;4.27;100.00;100702.59;4981856;28;20023;-86
2023/03/01 06:59:02;;;;;;;43.72;19.85;;;;;;;4.19;100.00;100710.22;4975223;28;20081;-88
2023/03/01 07:01:30;;;;;;;44.35;19.90;;;;;;;4.16;100.00;100711.28;4970891;28;20047;-89
2023/03/01 07:03:56;;;;;;;40.53;19.73;;;;;;;3.97;100.00;100699.69;4987879;28;20042;-88
2023/03/01 07:06:22;;;;;;;43.40;20.13;;;;;;;4.18;100.00;100700.66;4979118;28;20092;-87
2023/03/01 07:08:47;;;;;;;41.05;20.48;;;;;;;3.93;100.00;100695.63;4950755;28;20554;-88
2023/03/01 07:11:13;;;;;;;53.95;19.27;;;;;;;3.89;100.00;100702.03;4963640;28;20470;-86
2023/03/01 07:13:39;;;;;;;41.13;19.38;;;;;;;3.90;100.00;100698.47;4990340;28;20030;-88
2023/03/01 07:16:05;;;;;;;35.63;18.13;;;;;;;3.87;100.00;100698.72;4973681;28;20035;-90
2023/03/01 07:18:30;;;;;;;48.80;19.73;;;;;;;3.94;100.00;100705.16;4971661;28;20407;-88
2023/03/01 07:20:57;;;;;;;38.38;20.02;;;;;;;3.98;100.00;100703.97;4977158;28;20501;-88
2023/03/01 07:23:22;;;;;;;39.22;18.63;;;;;;;4.18;100.00;100704.13;4996757;28;20029;-89
2023/03/01 07:25:54;;;;;;;38.30;19.65;;;;;;;4.40;100.00;100707.75;4998919;28;20107;-87
2023/03/01 07:28:22;;;;;;;37.53;19.42;;;;;;;4.68;100.00;100697.59;4994095;28;20121;-90
2023/03/01 07:30:47;;;;;;;45.38;20.10;;;;;;;4.48;100.00;100694.84;4979308;28;20031;-87
2023/03/01 07:33:13;;;;;;;39.63;18.77;;;;;;;4.47;100.00;100699.28;4978748;28;20111;-87
2023/03/01 07:35:39;;;;;;;41.08;18.35;;;;;;;4.47;100.00;100703.69;4962727;28;20046;-90
2023/03/01 07:38:04;;;;;;;45.63;17.85;;;;;;;4.55;100.00;100702.13;4979643;28;20130;-89
2023/03/01 07:40:30;;;;;;;36.88;19.08;;;;;;;4.58;100.00;100711.56;4979148;28;20050;-87
2023/03/01 07:42:58;;;;;;;38.58;18.13;;;;;;;4.65;100.00;100704.88;4961971;28;20035;-90
2023/03/01 07:45:25;;;;;;;34.45;17.85;;;;;;;4.59;100.00;100711.44;4963491;28;20049;-92
2023/03/01 07:47:52;;;;;;;35.22;18.27;;;;;;;4.81;100.00;100701.88;4964712;28;20050;-89
2023/03/01 07:50:18;;;;;;;35.40;18.02;;;;;;;4.84;100.00;100694.59;4980080;28;20041;-89
2023/03/01 07:52:48;;;;;;;34.50;16.88;;;;;;;4.86;100.00;100703.19;4945789;28;20162;-90
2023/03/01 07:55:14;;;;;;;34.67;17.65;;;;;;;4.94;100.00;100700.78;4980703;28;20523;-89
2023/03/01 07:57:39;;;;;;;38.05;17.90;;;;;;;4.96;100.00;100690.19;5008106;28;20034;-88
2023/03/01 08:00:08;;;;;;;36.70;17.80;;;;;;;5.05;100.00;100694.69;5008623;28;20128;-92
2023/03/01 08:02:41;;;;;;;44.03;19.08;;;;;;;4.95;100.00;100696.38;4983534;28;20101;-92
2023/03/01 08:05:09;;;;;;;44.00;19.77;;;;;;;5.13;100.00;100694.91;4968533;28;20401;-91
2023/03/01 08:07:35;;;;;;;46.47;21.52;;;;;;;5.35;100.00;100696.63;5000264;28;20030;-89
2023/03/01 08:10:01;;;;;;;40.35;19.92;;;;;;;5.23;100.00;100693.22;4984710;28;20068;-92
2023/03/01 08:12:27;;;;;;;39.80;18.10;;;;;;;5.12;100.00;100694.09;4984520;28;20447;-91
2023/03/01 08:14:56;;;;;;;35.60;16.40;;;;;;;5.06;100.00;100689.31;4998920;28;20094;-90
2023/03/01 08:17:22;;;;;;;39.00;16.70;;;;;;;5.13;100.00;100689.66;4997919;28;20041;-91
2023/03/01 08:19:48;;;;;;;34.90;17.23;;;;;;;5.12;100.00;100677.47;4998880;28;20065;-92
2023/03/01 08:22:17;;;;;;;32.80;16.63;;;;;;;5.13;100.00;100672.13;4999652;28;20046;-92
2023/03/01 08:24:42;;;;;;;33.90;17.30;;;;;;;5.19;100.00;100670.78;5000391;28;20105;-92
2023/03/01 08:27:08;;;;;;;34.42;15.63;;;;;;;5.27;100.00;100676.22;5000195;28;20555;-87
2023/03/01 08:29:34;;;;;;;29.98;15.45;;;;;;;5.39;100.00;100685.75;4967699;28;20041;-90
2023/03/01 08:32:00;;;;;;;29.55;16.05;;;;;;;5.22;100.00;100670.53;4998366;28;20057;-90
2023/03/01 08:34:26;;;;;;;30.48;15.60;;;;;;;5.17;100.00;100668.25;4998346;28;20031;-88
2023/03/01 08:36:52;;;;;;;30.73;15.50;;;;;;;5.24;100.00;100673.03;4998511;28;20113;-89
2023/03/01 08:39:19;;;;;;;29.85;15.25;;;;;;;5.28;100.00;100675.28;4998672;28;20552;-90
2023/03/01 08:41:46;;;;;;;29.98;14.98;;;;;;;5.33;100.00;100682.78;4964315;28;20034;-89
2023/03/01 08:44:16;;;;;;;39.38;14.90;;;;;;;5.29;100.00;100676.97;5000896;28;20461;-90
2023/03/01 08:49:24;;;;;;;30.83;13.40;;;;;;;5.23;100.00;100664.31;5988390;23;21053;-83
2023/03/01 11:17:50;;;;;;;21.50;10.57;;;;;;;7.79;99.50;100518.72;4953519;23;20138;-89
2023/03/01 11:20:26;;;;;;;32.53;14.85;;;;;;;7.67;100.00;100516.41;4994629;23;20047;-90
2023/03/01 11:23:19;;;;;;;26.23;14.55;;;;;;;7.49;100.00;100512.88;4987805;28;20039;-89
2023/03/01 11:26:14;;;;;;;27.75;14.25;;;;;;;7.51;100.00;100501.22;4992207;28;20050;-90
2023/03/01 11:28:48;;;;;;;31.17;14.82;;;;;;;7.62;97.34;100498.38;4966273;23;20054;-90
2023/03/01 11:31:27;;;;;;;24.70;14.90;;;;;;;7.44;100.00;100501.91;4960996;29;20131;-87
2023/03/01 11:34:19;;;;;;;22.58;13.43;;;;;;;7.48;98.38;100501.50;4956400;23;20063;-87
2023/03/01 11:36:54;;;;;;;27.58;14.98;;;;;;;7.34;99.77;100498.47;4981447;28;20057;-88
2023/03/01 11:39:57;;;;;;;25.17;13.23;;;;;;;7.29;100.00;100496.28;4985203;28;20027;-89
2023/03/01 11:42:53;;;;;;;32.47;15.45;;;;;;;7.38;100.00;100490.13;4992713;23;20059;-89
2023/03/01 11:45:22;;;;;;;26.25;13.75;;;;;;;7.31;100.00;100494.31;4964402;28;20054;-91
2023/03/01 11:48:07;;;;;;;27.45;14.68;;;;;;;7.24;100.00;100493.22;4951295;29;20102;-85
2023/03/01 11:50:40;;;;;;;27.10;13.65;;;;;;;7.17;100.00;100492.94;4970184;28;20039;-87
2023/03/01 11:53:39;;;;;;;32.28;14.43;;;;;;;7.24;100.00;100495.84;4963893;29;20039;-86
2023/03/01 11:56:27;;;;;;;23.95;13.90;;;;;;;7.27;100.00;100498.19;4945018;29;20592;-88
2023/03/01 11:59:25;;;;;;;29.35;14.70;;;;;;;7.40;100.00;100498.72;4951864;29;20129;-91
2023/03/01 12:02:17;;;;;;;25.92;14.45;;;;;;;7.21;100.00;100499.59;4910886;29;20047;-90
2023/03/01 12:05:19;;;;;;;28.27;14.57;;;;;;;7.28;100.00;100502.50;4936715;29;20047;-91
2023/03/01 12:07:55;;;;;;;;;;;;;;;7.25;99.68;100510.69;4954039;29;20071;-91
2023/03/01 12:10:27;;;;;;;32.15;15.18;;;;;;;7.12;100.00;100510.16;4935160;29;20396;-88
2023/03/01 12:13:06;;;;;;;30.67;15.30;;;;;;;7.02;100.00;100514.59;4952753;29;20123;-89
2023/03/01 12:15:49;;;;;;;30.13;15.80;;;;;;;7.10;100.00;100514.72;4958662;29;20353;-91
2023/03/01 12:18:47;;;;;;;33.97;16.48;;;;;;;6.75;100.00;100523.19;4932658;29;20052;-90
2023/03/01 12:21:32;;;;;;;33.90;16.60;;;;;;;6.49;100.00;100516.78;4940021;29;20051;-90
2023/03/01 12:24:38;;;;;;;34.15;16.42;;;;;;;6.47;100.00;100514.28;4948593;29;20040;-88
2023/03/01 12:27:33;;;;;;;34.33;16.80;;;;;;;6.65;100.00;100502.13;4882101;29;20052;-90
2023/03/01 12:30:22;;;;;;;30.08;15.80;;;;;;;6.40;100.00;100505.25;4864146;29;20117;-90
2023/03/01 12:33:02;;;;;;;43.58;18.05;;;;;;;6.32;100.00;100494.59;4854148;29;20508;-90
2023/03/01 12:36:23;;;;;;;35.67;17.92;;;;;;;6.54;100.00;100499.59;4865266;29;20064;-89
2023/03/01 12:39:17;;;;;;;37.72;18.95;;;;;;;6.57;100.00;100501.97;4821417;29;20466;-92
2023/03/01 12:41:51;;;;;;;34.97;17.02;;;;;;;6.75;100.00;100500.31;4819492;29;20054;-90
2023/03/01 12:44:34;;;;;;;33.58;18.45;;;;;;;6.54;100.00;100496.97;4846833;29;20042;-90
2023/03/01 12:47:13;;;;;;;35.47;17.75;;;;;;;6.44;100.00;100509.28;4847494;29;20041;-91
2023/03/01 12:49:44;;;;;;;37.60;19.50;;;;;;;6.17;100.00;100502.03;4864511;29;20058;-89
2023/03/01 12:52:22;;;;;;;36.17;17.85;;;;;;;6.16;100.00;100520.59;4892427;29;20056;-89
2023/03/01 12:54:51;;;;;;;40.60;18.77;;;;;;;5.89;100.00;100515.09;4869707;29;20116;-92
2023/03/01 12:57:36;;;;;;;38.70;18.98;;;;;;;5.73;100.00;100507.66;4909015;29;20149;-93
2023/03/01 13:00:30;;;;;;;36.15;18.52;;;;;;;5.63;100.00;100504.16;4968718;28;20034;-87
2023/03/01 13:03:20;;;;;;;43.90;21.35;;;;;;;5.58;100.00;100507.16;4969797;28;20479;-92
2023/03/01 13:05:57;;;;;;;37.95;18.25;;;;;;;5.51;100.00;100516.53;4960134;28;20389;-90
2023/03/01 13:08:32;;;;;;;41.58;20.20;;;;;;;5.49;100.00;100509.72;4956000;28;20041;-91
2023/03/01 13:11:07;;;;;;;47.88;21.17;;;;;;;5.39;100.00;100514.94;4980278;28;20047;-90
2023/03/01 13:13:33;;;;;;;44.15;19.67;;;;;;;5.21;100.00;100506.78;4981312;28;20106;-91
2023/03/01 13:16:38;;;;;;;46.42;21.20;;;;;;;5.19;100.00;100497.38;4970186;28;20035;-88
2023/03/01 13:19:16;;;;;;;41.88;19.90;;;;;;;5.11;100.00;100489.28;4976378;28;20030;-87
2023/03/01 13:21:43;;;;;;;45.97;21.25;;;;;;;5.32;100.00;100482.25;4964484;28;20039;-88
2023/03/01 13:24:33;;;;;;;39.83;20.20;;;;;;;5.46;100.00;100483.72;4979451;28;20030;-87
2023/03/01 13:27:17;;;;;;;38.63;19.77;;;;;;;5.45;100.00;100480.25;4976043;28;20041;-88
2023/03/01 13:29:57;;;;;;;48.42;20.20;;;;;;;5.20;100.00;100491.19;4961701;28;20253;-88
2023/03/01 13:32:28;;;;;;;47.78;21.50;;;;;;;5.03;100.00;100489.97;4976833;28;20046;-91
2023/03/01 13:35:22;;;;;;;49.28;22.02;;;;;;;5.06;100.00;100487.06;4961956;28;20124;-91
2023/03/01 13:37:51;;;;;;;41.63;21.02;;;;;;;5.02;100.00;100492.69;4963952;29;20078;-90
2023/03/01 13:40:23;;;;;;;39.88;20.40;;;;;;;5.01;100.00;100483.13;4947249;29;20438;-92
2023/03/01 13:42:51;;;;;;;47.45;21.30;;;;;;;4.94;100.00;100476.75;4963292;29;20039;-88
2023/03/01 13:45:38;;;;;;;37.70;19.33;;;;;;;5.41;100.00;100465.69;4942346;29;20057;-89
2023/03/01 13:48:25;;;;;;;37.15;19.65;;;;;;;5.38;100.00;100446.72;4927665;29;20118;-91
2023/03/01 13:50:57;;;;;;;36.97;19.15;;;;;;;5.35;100.00;100429.44;4959728;29;20035;-91
2023/03/01 13:53:26;;;;;;;33.55;17.23;;;;;;;5.21;100.00;100437.66;4959080;29;20490;-89
2023/03/01 13:55:58;;;;;;;37.10;18.67;;;;;;;5.08;100.00;100443.09;4942249;29;20035;-91